HRS weather

Cantarell II Platform Helipad
Villahermosa, Tabasco, Mexico

Public forecast

Using degrees Celsius for public forecast. Weather courtesy of forecast.io.

Closest aviation weather report (METAR) to Cantarell II Platform Helipad

Closest report is Carlos Rovirosa Pérez International Airport, 50.3 nm (93.1 km) SE. Retrieved 2020/07/04 15:40 UTC (16 minutes ago):

MMVA 041540Z 06008KT 6SM BKN010 BKN050 28/23 A2997 RMK 8/500

Closest aviation forecast (TAF) to Cantarell II Platform Helipad

Forecast is more than 6 hours old.

Closest forecast is Carlos Rovirosa Pérez International Airport, 50.3 nm (93.1 km) SE. Retrieved 2020/07/04 06:20 UTC (10 hours ago):

TAF MMVA 040513Z 0406/0506 06005KT 6SM HZ SCT015 SCT070 TEMPO 0410/0414 BKN015 FM041600 06010KT P6SM SCT020 FM042200 06010KT P6SM BKN020CB TEMPO 0422/0502 2SM TSRA